sensor_id;sensor_type;location;lat;lon;timestamp;temperature;humidity
27900;DHT22;15243;50.726;7.080;2022-10-31T00:00:55;11.00;99.90
27900;DHT22;15243;50.726;7.080;2022-10-31T00:03:22;10.90;99.90
27900;DHT22;15243;50.726;7.080;2022-10-31T00:05:50;10.90;99.90
27900;DHT22;15243;50.726;7.080;2022-10-31T00:08:17;10.90;99.90
27900;DHT22;15243;50.726;7.080;2022-10-31T00:10:45;10.80;99.90
27900;DHT22;15243;50.726;7.080;2022-10-31T00:13:13;10.80;99.90
27900;DHT22;15243;50.726;7.080;2022-10-31T00:15:40;10.90;99.90
27900;DHT22;15243;50.726;7.080;2022-10-31T00:18:09;10.90;99.90
27900;DHT22;15243;50.726;7.080;2022-10-31T00:20:37;10.90;99.90
27900;DHT22;15243;50.726;7.080;2022-10-31T00:23:05;10.90;99.90
27900;DHT22;15243;50.726;7.080;2022-10-31T00:25:39;10.90;99.90
27900;DHT22;15243;50.726;7.080;2022-10-31T00:28:07;10.90;99.90
27900;DHT22;15243;50.726;7.080;2022-10-31T00:30:35;10.90;99.90
27900;DHT22;15243;50.726;7.080;2022-10-31T00:33:03;10.90;99.90
27900;DHT22;15243;50.726;7.080;2022-10-31T00:35:31;10.80;99.90
27900;DHT22;15243;50.726;7.080;2022-10-31T00:37:58;10.80;99.90
27900;DHT22;15243;50.726;7.080;2022-10-31T00:40:25;10.80;99.90
27900;DHT22;15243;50.726;7.080;2022-10-31T00:42:52;10.70;99.90
27900;DHT22;15243;50.726;7.080;2022-10-31T00:45:19;10.80;99.90
27900;DHT22;15243;50.726;7.080;2022-10-31T00:47:46;10.80;99.90
27900;DHT22;15243;50.726;7.080;2022-10-31T00:50:13;10.80;99.90
27900;DHT22;15243;50.726;7.080;2022-10-31T00:52:39;10.80;99.90
27900;DHT22;15243;50.726;7.080;2022-10-31T00:55:06;10.80;99.90
27900;DHT22;15243;50.726;7.080;2022-10-31T00:57:33;10.90;99.90
27900;DHT22;15243;50.726;7.080;2022-10-31T01:00:00;10.80;99.90
27900;DHT22;15243;50.726;7.080;2022-10-31T01:02:27;10.90;99.90
27900;DHT22;15243;50.726;7.080;2022-10-31T01:04:54;10.90;99.90
27900;DHT22;15243;50.726;7.080;2022-10-31T01:07:21;10.90;99.90
27900;DHT22;15243;50.726;7.080;2022-10-31T01:09:47;10.90;99.90
27900;DHT22;15243;50.726;7.080;2022-10-31T01:12:14;10.80;99.90
27900;DHT22;15243;50.726;7.080;2022-10-31T01:14:45;10.80;99.90
27900;DHT22;15243;50.726;7.080;2022-10-31T01:17:13;10.80;99.90
27900;DHT22;15243;50.726;7.080;2022-10-31T01:19:40;10.80;99.90
27900;DHT22;15243;50.726;7.080;2022-10-31T01:22:06;10.70;99.90
27900;DHT22;15243;50.726;7.080;2022-10-31T01:24:33;10.80;99.90
27900;DHT22;15243;50.726;7.080;2022-10-31T01:27:00;10.80;99.90
27900;DHT22;15243;50.726;7.080;2022-10-31T01:29:27;10.80;99.90
27900;DHT22;15243;50.726;7.080;2022-10-31T01:31:54;10.80;99.90
27900;DHT22;15243;50.726;7.080;2022-10-31T01:34:21;10.80;99.90
27900;DHT22;15243;50.726;7.080;2022-10-31T01:36:47;10.80;99.90
27900;DHT22;15243;50.726;7.080;2022-10-31T01:39:18;10.80;99.90
27900;DHT22;15243;50.726;7.080;2022-10-31T01:41:51;10.80;99.90
27900;DHT22;15243;50.726;7.080;2022-10-31T01:47:04;10.80;99.90
27900;DHT22;15243;50.726;7.080;2022-10-31T01:49:46;10.80;99.90
27900;DHT22;15243;50.726;7.080;2022-10-31T01:55:11;10.90;99.90
27900;DHT22;15243;50.726;7.080;2022-10-31T01:57:44;10.90;99.90
27900;DHT22;15243;50.726;7.080;2022-10-31T02:00:13;10.90;99.90
27900;DHT22;15243;50.726;7.080;2022-10-31T02:02:40;10.90;99.90
27900;DHT22;15243;50.726;7.080;2022-10-31T02:05:14;10.90;99.90
27900;DHT22;15243;50.726;7.080;2022-10-31T02:07:48;10.90;99.90
27900;DHT22;15243;50.726;7.080;2022-10-31T02:10:21;10.80;99.90
27900;DHT22;15243;50.726;7.080;2022-10-31T02:12:51;10.90;99.90
27900;DHT22;15243;50.726;7.080;2022-10-31T02:15:19;10.90;99.90
27900;DHT22;15243;50.726;7.080;2022-10-31T02:17:46;11.00;99.90
27900;DHT22;15243;50.726;7.080;2022-10-31T02:20:24;10.90;99.90
27900;DHT22;15243;50.726;7.080;2022-10-31T02:26:13;10.80;99.90
27900;DHT22;15243;50.726;7.080;2022-10-31T02:31:35;10.90;99.90
27900;DHT22;15243;50.726;7.080;2022-10-31T02:34:16;10.80;99.90
27900;DHT22;15243;50.726;7.080;2022-10-31T02:36:56;10.90;99.90
27900;DHT22;15243;50.726;7.080;2022-10-31T02:39:28;10.90;99.90
27900;DHT22;15243;50.726;7.080;2022-10-31T02:42:16;10.90;99.90
27900;DHT22;15243;50.726;7.080;2022-10-31T02:47:35;10.80;99.90
27900;DHT22;15243;50.726;7.080;2022-10-31T02:50:08;10.80;99.90
27900;DHT22;15243;50.726;7.080;2022-10-31T02:52:37;10.80;99.90
27900;DHT22;15243;50.726;7.080;2022-10-31T02:55:12;10.80;99.90
27900;DHT22;15243;50.726;7.080;2022-10-31T02:58:11;10.80;99.90
27900;DHT22;15243;50.726;7.080;2022-10-31T03:00:49;10.80;99.90
27900;DHT22;15243;50.726;7.080;2022-10-31T03:03:26;10.90;99.90
27900;DHT22;15243;50.726;7.080;2022-10-31T03:11:39;10.90;99.90
27900;DHT22;15243;50.726;7.080;2022-10-31T03:14:12;10.90;99.90
27900;DHT22;15243;50.726;7.080;2022-10-31T03:16:50;10.90;99.90
27900;DHT22;15243;50.726;7.080;2022-10-31T03:19:40;11.00;99.90
27900;DHT22;15243;50.726;7.080;2022-10-31T03:22:14;11.00;99.90
27900;DHT22;15243;50.726;7.080;2022-10-31T03:24:42;11.00;99.90
27900;DHT22;15243;50.726;7.080;2022-10-31T03:27:12;11.00;99.90
27900;DHT22;15243;50.726;7.080;2022-10-31T03:29:42;11.00;99.90
27900;DHT22;15243;50.726;7.080;2022-10-31T03:32:20;11.00;99.90
27900;DHT22;15243;50.726;7.080;2022-10-31T03:34:49;11.00;99.90
27900;DHT22;15243;50.726;7.080;2022-10-31T03:37:19;11.00;99.90
27900;DHT22;15243;50.726;7.080;2022-10-31T03:39:48;11.00;99.90
27900;DHT22;15243;50.726;7.080;2022-10-31T03:42:18;10.90;99.90
27900;DHT22;15243;50.726;7.080;2022-10-31T03:45:25;10.90;99.90
27900;DHT22;15243;50.726;7.080;2022-10-31T03:47:44;10.90;99.90
27900;DHT22;15243;50.726;7.080;2022-10-31T03:50:14;10.90;99.90
27900;DHT22;15243;50.726;7.080;2022-10-31T03:52:53;10.80;99.90
27900;DHT22;15243;50.726;7.080;2022-10-31T03:55:32;10.80;99.90
27900;DHT22;15243;50.726;7.080;2022-10-31T03:58:08;10.80;99.90
27900;DHT22;15243;50.726;7.080;2022-10-31T04:00:39;10.90;99.90
27900;DHT22;15243;50.726;7.080;2022-10-31T04:03:19;10.80;99.90
27900;DHT22;15243;50.726;7.080;2022-10-31T04:05:49;10.80;99.90
27900;DHT22;15243;50.726;7.080;2022-10-31T04:08:20;10.70;99.90
27900;DHT22;15243;50.726;7.080;2022-10-31T04:10:49;10.70;99.90
27900;DHT22;15243;50.726;7.080;2022-10-31T04:13:28;10.60;99.90
27900;DHT22;15243;50.726;7.080;2022-10-31T04:15:55;10.60;99.90
27900;DHT22;15243;50.726;7.080;2022-10-31T04:18:23;10.70;99.90
27900;DHT22;15243;50.726;7.080;2022-10-31T04:21:00;10.60;99.90
27900;DHT22;15243;50.726;7.080;2022-10-31T04:23:28;10.60;99.90
27900;DHT22;15243;50.726;7.080;2022-10-31T04:25:55;10.60;99.90
27900;DHT22;15243;50.726;7.080;2022-10-31T04:28:22;10.50;99.90
27900;DHT22;15243;50.726;7.080;2022-10-31T04:30:49;10.60;99.90
27900;DHT22;15243;50.726;7.080;2022-10-31T04:33:16;10.50;99.90
27900;DHT22;15243;50.726;7.080;2022-10-31T04:35:43;10.50;99.90
27900;DHT22;15243;50.726;7.080;2022-10-31T04:38:10;10.50;99.90
27900;DHT22;15243;50.726;7.080;2022-10-31T04:40:37;10.50;99.90
27900;DHT22;15243;50.726;7.080;2022-10-31T04:43:03;10.60;99.90
27900;DHT22;15243;50.726;7.080;2022-10-31T04:45:30;10.60;99.90
27900;DHT22;15243;50.726;7.080;2022-10-31T04:47:57;10.50;99.90
27900;DHT22;15243;50.726;7.080;2022-10-31T04:50:25;10.50;99.90
27900;DHT22;15243;50.726;7.080;2022-10-31T04:52:51;10.40;99.90
27900;DHT22;15243;50.726;7.080;2022-10-31T04:55:18;10.40;99.90
27900;DHT22;15243;50.726;7.080;2022-10-31T04:57:49;10.30;99.90
27900;DHT22;15243;50.726;7.080;2022-10-31T05:00:19;10.30;99.90
27900;DHT22;15243;50.726;7.080;2022-10-31T05:02:48;10.40;99.90
27900;DHT22;15243;50.726;7.080;2022-10-31T05:05:16;10.30;99.90
27900;DHT22;15243;50.726;7.080;2022-10-31T05:07:45;10.30;99.90
27900;DHT22;15243;50.726;7.080;2022-10-31T05:10:18;10.20;99.90
27900;DHT22;15243;50.726;7.080;2022-10-31T05:12:50;10.20;99.90
27900;DHT22;15243;50.726;7.080;2022-10-31T05:15:19;10.30;99.90
27900;DHT22;15243;50.726;7.080;2022-10-31T05:17:46;10.30;99.90
27900;DHT22;15243;50.726;7.080;2022-10-31T05:20:15;10.20;99.90
27900;DHT22;15243;50.726;7.080;2022-10-31T05:22:47;10.20;99.90
27900;DHT22;15243;50.726;7.080;2022-10-31T05:25:15;10.20;99.90
27900;DHT22;15243;50.726;7.080;2022-10-31T05:27:43;10.10;99.90
27900;DHT22;15243;50.726;7.080;2022-10-31T05:30:11;10.10;99.90
27900;DHT22;15243;50.726;7.080;2022-10-31T05:32:48;10.10;99.90
27900;DHT22;15243;50.726;7.080;2022-10-31T05:35:21;10.10;99.90
27900;DHT22;15243;50.726;7.080;2022-10-31T05:37:58;10.10;99.90
27900;DHT22;15243;50.726;7.080;2022-10-31T05:40:26;10.10;99.90
27900;DHT22;15243;50.726;7.080;2022-10-31T05:42:56;10.10;99.90
27900;DHT22;15243;50.726;7.080;2022-10-31T05:45:25;10.10;99.90
27900;DHT22;15243;50.726;7.080;2022-10-31T05:47:54;10.00;99.90
27900;DHT22;15243;50.726;7.080;2022-10-31T05:50:21;10.00;99.90
27900;DHT22;15243;50.726;7.080;2022-10-31T05:52:55;10.00;99.90
27900;DHT22;15243;50.726;7.080;2022-10-31T05:55:22;9.90;99.90
27900;DHT22;15243;50.726;7.080;2022-10-31T05:57:49;9.90;99.90
27900;DHT22;15243;50.726;7.080;2022-10-31T06:00:17;9.90;99.90
27900;DHT22;15243;50.726;7.080;2022-10-31T06:02:43;9.90;99.90
27900;DHT22;15243;50.726;7.080;2022-10-31T06:05:11;9.90;99.90
27900;DHT22;15243;50.726;7.080;2022-10-31T06:07:38;10.00;99.90
27900;DHT22;15243;50.726;7.080;2022-10-31T06:10:06;9.90;99.90
27900;DHT22;15243;50.726;7.080;2022-10-31T06:12:34;9.90;99.90
27900;DHT22;15243;50.726;7.080;2022-10-31T06:15:24;9.90;99.90
27900;DHT22;15243;50.726;7.080;2022-10-31T06:18:02;9.80;99.90
27900;DHT22;15243;50.726;7.080;2022-10-31T06:20:30;9.80;99.90
27900;DHT22;15243;50.726;7.080;2022-10-31T06:23:00;9.90;99.90
27900;DHT22;15243;50.726;7.080;2022-10-31T06:25:34;10.00;99.90
27900;DHT22;15243;50.726;7.080;2022-10-31T06:28:05;9.90;99.90
27900;DHT22;15243;50.726;7.080;2022-10-31T06:30:32;10.00;99.90
27900;DHT22;15243;50.726;7.080;2022-10-31T06:33:05;10.00;99.90
27900;DHT22;15243;50.726;7.080;2022-10-31T06:35:33;10.00;99.90
27900;DHT22;15243;50.726;7.080;2022-10-31T06:37:59;10.00;99.90
27900;DHT22;15243;50.726;7.080;2022-10-31T06:40:27;10.00;99.90
27900;DHT22;15243;50.726;7.080;2022-10-31T06:42:58;10.00;99.90
27900;DHT22;15243;50.726;7.080;2022-10-31T06:45:25;10.10;99.90
27900;DHT22;15243;50.726;7.080;2022-10-31T06:47:57;10.00;99.90
27900;DHT22;15243;50.726;7.080;2022-10-31T06:50:44;10.00;99.90
27900;DHT22;15243;50.726;7.080;2022-10-31T06:53:14;10.00;99.90
27900;DHT22;15243;50.726;7.080;2022-10-31T06:55:51;10.10;99.90
27900;DHT22;15243;50.726;7.080;2022-10-31T06:58:28;10.20;99.90
27900;DHT22;15243;50.726;7.080;2022-10-31T07:01:16;10.20;99.90
27900;DHT22;15243;50.726;7.080;2022-10-31T07:03:46;10.30;99.90
27900;DHT22;15243;50.726;7.080;2022-10-31T07:06:50;10.40;99.90
27900;DHT22;15243;50.726;7.080;2022-10-31T07:09:20;10.40;99.90
27900;DHT22;15243;50.726;7.080;2022-10-31T07:11:47;10.50;99.90
27900;DHT22;15243;50.726;7.080;2022-10-31T07:14:13;10.60;99.90
27900;DHT22;15243;50.726;7.080;2022-10-31T07:16:40;10.60;99.90
27900;DHT22;15243;50.726;7.080;2022-10-31T07:19:07;10.70;99.90
27900;DHT22;15243;50.726;7.080;2022-10-31T07:21:53;10.70;99.90
27900;DHT22;15243;50.726;7.080;2022-10-31T07:24:23;10.70;99.90
27900;DHT22;15243;50.726;7.080;2022-10-31T07:26:49;10.70;99.90
27900;DHT22;15243;50.726;7.080;2022-10-31T07:29:16;10.80;99.90
27900;DHT22;15243;50.726;7.080;2022-10-31T07:31:49;10.80;99.90
27900;DHT22;15243;50.726;7.080;2022-10-31T07:34:17;10.80;99.90
27900;DHT22;15243;50.726;7.080;2022-10-31T07:36:44;10.80;99.90
27900;DHT22;15243;50.726;7.080;2022-10-31T07:39:11;10.80;99.90
27900;DHT22;15243;50.726;7.080;2022-10-31T07:41:37;10.90;99.90
27900;DHT22;15243;50.726;7.080;2022-10-31T07:44:04;11.00;99.90
27900;DHT22;15243;50.726;7.080;2022-10-31T07:46:34;11.10;99.90
27900;DHT22;15243;50.726;7.080;2022-10-31T07:49:06;11.20;99.90
27900;DHT22;15243;50.726;7.080;2022-10-31T07:51:33;11.30;99.90
27900;DHT22;15243;50.726;7.080;2022-10-31T07:54:00;11.30;99.90
27900;DHT22;15243;50.726;7.080;2022-10-31T07:56:27;11.30;99.90
27900;DHT22;15243;50.726;7.080;2022-10-31T07:59:03;11.40;99.90
27900;DHT22;15243;50.726;7.080;2022-10-31T08:01:33;11.40;99.90
27900;DHT22;15243;50.726;7.080;2022-10-31T08:04:00;11.50;99.90
27900;DHT22;15243;50.726;7.080;2022-10-31T08:06:27;11.60;99.90
27900;DHT22;15243;50.726;7.080;2022-10-31T08:08:54;11.60;99.90
27900;DHT22;15243;50.726;7.080;2022-10-31T08:11:21;11.70;99.90
27900;DHT22;15243;50.726;7.080;2022-10-31T08:13:59;11.70;99.90
27900;DHT22;15243;50.726;7.080;2022-10-31T08:16:27;11.80;99.90
27900;DHT22;15243;50.726;7.080;2022-10-31T08:18:57;11.90;99.90
27900;DHT22;15243;50.726;7.080;2022-10-31T08:21:35;12.00;99.90
27900;DHT22;15243;50.726;7.080;2022-10-31T08:24:19;12.00;99.90
27900;DHT22;15243;50.726;7.080;2022-10-31T08:26:57;12.10;99.90
27900;DHT22;15243;50.726;7.080;2022-10-31T08:29:39;12.10;99.90
27900;DHT22;15243;50.726;7.080;2022-10-31T08:32:21;12.10;99.90
27900;DHT22;15243;50.726;7.080;2022-10-31T08:34:48;12.10;99.90
27900;DHT22;15243;50.726;7.080;2022-10-31T08:37:15;12.30;99.90
27900;DHT22;15243;50.726;7.080;2022-10-31T08:39:46;12.40;99.90
27900;DHT22;15243;50.726;7.080;2022-10-31T08:42:13;12.50;99.90
27900;DHT22;15243;50.726;7.080;2022-10-31T08:44:40;12.50;99.90
27900;DHT22;15243;50.726;7.080;2022-10-31T08:47:07;12.60;99.90
27900;DHT22;15243;50.726;7.080;2022-10-31T08:49:34;12.60;99.90
27900;DHT22;15243;50.726;7.080;2022-10-31T08:52:01;12.60;99.90
27900;DHT22;15243;50.726;7.080;2022-10-31T08:54:27;12.60;99.90
27900;DHT22;15243;50.726;7.080;2022-10-31T08:56:55;12.70;99.90
27900;DHT22;15243;50.726;7.080;2022-10-31T08:59:23;12.80;99.90
27900;DHT22;15243;50.726;7.080;2022-10-31T09:01:50;12.90;99.90
27900;DHT22;15243;50.726;7.080;2022-10-31T09:04:17;13.00;99.90
27900;DHT22;15243;50.726;7.080;2022-10-31T09:06:44;13.00;99.90
27900;DHT22;15243;50.726;7.080;2022-10-31T09:09:31;13.00;99.90
27900;DHT22;15243;50.726;7.080;2022-10-31T09:11:58;13.20;99.90
27900;DHT22;15243;50.726;7.080;2022-10-31T09:14:25;13.30;99.90
27900;DHT22;15243;50.726;7.080;2022-10-31T09:16:53;13.50;99.90
27900;DHT22;15243;50.726;7.080;2022-10-31T09:19:20;13.70;99.90
27900;DHT22;15243;50.726;7.080;2022-10-31T09:21:47;13.70;99.90
27900;DHT22;15243;50.726;7.080;2022-10-31T09:24:14;14.00;99.90
27900;DHT22;15243;50.726;7.080;2022-10-31T09:26:41;14.20;99.90
27900;DHT22;15243;50.726;7.080;2022-10-31T09:29:08;14.30;99.90
27900;DHT22;15243;50.726;7.080;2022-10-31T09:31:39;14.20;99.90
27900;DHT22;15243;50.726;7.080;2022-10-31T09:34:13;14.20;99.90
27900;DHT22;15243;50.726;7.080;2022-10-31T09:36:56;14.30;99.90
27900;DHT22;15243;50.726;7.080;2022-10-31T09:39:31;14.60;99.90
27900;DHT22;15243;50.726;7.080;2022-10-31T09:45:14;15.00;99.90
27900;DHT22;15243;50.726;7.080;2022-10-31T09:50:56;15.30;99.90
27900;DHT22;15243;50.726;7.080;2022-10-31T09:53:27;15.30;99.90
27900;DHT22;15243;50.726;7.080;2022-10-31T09:55:57;15.30;99.90
27900;DHT22;15243;50.726;7.080;2022-10-31T09:58:27;15.40;99.90
27900;DHT22;15243;50.726;7.080;2022-10-31T10:00:58;15.40;99.90
27900;DHT22;15243;50.726;7.080;2022-10-31T10:03:37;15.50;99.90
27900;DHT22;15243;50.726;7.080;2022-10-31T10:06:23;15.50;99.90
27900;DHT22;15243;50.726;7.080;2022-10-31T10:08:51;15.40;99.90
27900;DHT22;15243;50.726;7.080;2022-10-31T10:21:46;15.00;99.90
27900;DHT22;15243;50.726;7.080;2022-10-31T10:30:13;14.90;99.90
27900;DHT22;15243;50.726;7.080;2022-10-31T10:32:54;15.10;99.90
27900;DHT22;15243;50.726;7.080;2022-10-31T10:35:28;15.10;99.90
27900;DHT22;15243;50.726;7.080;2022-10-31T10:38:23;15.20;99.90
27900;DHT22;15243;50.726;7.080;2022-10-31T10:40:53;15.30;99.90
27900;DHT22;15243;50.726;7.080;2022-10-31T10:43:29;15.40;99.90
27900;DHT22;15243;50.726;7.080;2022-10-31T11:00:34;15.90;99.90
27900;DHT22;15243;50.726;7.080;2022-10-31T11:03:02;16.00;99.90
27900;DHT22;15243;50.726;7.080;2022-10-31T11:05:54;16.20;99.90
27900;DHT22;15243;50.726;7.080;2022-10-31T11:13:49;16.70;99.90
27900;DHT22;15243;50.726;7.080;2022-10-31T11:16:29;16.80;99.90
27900;DHT22;15243;50.726;7.080;2022-10-31T11:19:08;17.00;99.90
27900;DHT22;15243;50.726;7.080;2022-10-31T11:21:42;17.10;99.90
27900;DHT22;15243;50.726;7.080;2022-10-31T11:24:24;17.10;99.90
27900;DHT22;15243;50.726;7.080;2022-10-31T11:27:36;17.20;99.90
27900;DHT22;15243;50.726;7.080;2022-10-31T11:30:06;17.40;99.90
27900;DHT22;15243;50.726;7.080;2022-10-31T11:32:34;17.30;99.90
27900;DHT22;15243;50.726;7.080;2022-10-31T11:35:16;17.30;99.90
27900;DHT22;15243;50.726;7.080;2022-10-31T11:37:48;17.40;99.90
27900;DHT22;15243;50.726;7.080;2022-10-31T11:40:23;17.50;99.90
27900;DHT22;15243;50.726;7.080;2022-10-31T11:42:56;17.30;99.90
27900;DHT22;15243;50.726;7.080;2022-10-31T11:45:34;17.20;99.90
27900;DHT22;15243;50.726;7.080;2022-10-31T11:48:29;17.30;99.90
27900;DHT22;15243;50.726;7.080;2022-10-31T11:51:08;17.20;99.90
27900;DHT22;15243;50.726;7.080;2022-10-31T11:53:53;17.20;99.90
27900;DHT22;15243;50.726;7.080;2022-10-31T11:56:38;17.10;99.90
27900;DHT22;15243;50.726;7.080;2022-10-31T11:59:17;17.30;99.90
27900;DHT22;15243;50.726;7.080;2022-10-31T12:01:49;17.50;99.90
27900;DHT22;15243;50.726;7.080;2022-10-31T12:04:17;17.50;99.90
27900;DHT22;15243;50.726;7.080;2022-10-31T12:06:46;17.40;99.90
27900;DHT22;15243;50.726;7.080;2022-10-31T12:09:25;17.30;99.90
27900;DHT22;15243;50.726;7.080;2022-10-31T12:17:18;17.60;99.90
27900;DHT22;15243;50.726;7.080;2022-10-31T12:22:52;17.70;99.90
27900;DHT22;15243;50.726;7.080;2022-10-31T12:25:33;17.90;99.90
27900;DHT22;15243;50.726;7.080;2022-10-31T12:39:21;18.00;99.90
27900;DHT22;15243;50.726;7.080;2022-10-31T13:01:20;17.40;99.90
27900;DHT22;15243;50.726;7.080;2022-10-31T13:07:05;17.30;99.90
27900;DHT22;15243;50.726;7.080;2022-10-31T13:09:50;17.30;99.90
27900;DHT22;15243;50.726;7.080;2022-10-31T13:12:21;17.50;99.90
27900;DHT22;15243;50.726;7.080;2022-10-31T13:14:57;17.40;99.90
27900;DHT22;15243;50.726;7.080;2022-10-31T13:17:34;17.50;99.90
27900;DHT22;15243;50.726;7.080;2022-10-31T13:22:50;17.50;99.90
27900;DHT22;15243;50.726;7.080;2022-10-31T13:25:25;17.50;99.90
27900;DHT22;15243;50.726;7.080;2022-10-31T13:27:58;17.60;99.90
27900;DHT22;15243;50.726;7.080;2022-10-31T13:30:29;17.60;99.90
27900;DHT22;15243;50.726;7.080;2022-10-31T13:44:22;17.60;99.90
27900;DHT22;15243;50.726;7.080;2022-10-31T13:46:55;17.50;99.90
27900;DHT22;15243;50.726;7.080;2022-10-31T13:54:47;17.30;99.90
27900;DHT22;15243;50.726;7.080;2022-10-31T13:57:38;17.20;99.90
27900;DHT22;15243;50.726;7.080;2022-10-31T14:02:50;17.30;99.90
27900;DHT22;15243;50.726;7.080;2022-10-31T14:05:27;17.20;99.90
27900;DHT22;15243;50.726;7.080;2022-10-31T14:07:58;17.20;99.90
27900;DHT22;15243;50.726;7.080;2022-10-31T14:10:45;17.20;99.90
27900;DHT22;15243;50.726;7.080;2022-10-31T14:13:23;17.30;99.90
27900;DHT22;15243;50.726;7.080;2022-10-31T14:15:59;17.30;99.90
27900;DHT22;15243;50.726;7.080;2022-10-31T14:21:45;17.20;99.90
27900;DHT22;15243;50.726;7.080;2022-10-31T14:24:30;17.30;99.90
27900;DHT22;15243;50.726;7.080;2022-10-31T14:30:19;17.30;99.90
27900;DHT22;15243;50.726;7.080;2022-10-31T14:32:58;17.30;99.90
27900;DHT22;15243;50.726;7.080;2022-10-31T14:35:51;17.30;99.90
27900;DHT22;15243;50.726;7.080;2022-10-31T14:44:15;17.30;99.90
27900;DHT22;15243;50.726;7.080;2022-10-31T14:47:07;17.30;99.90
27900;DHT22;15243;50.726;7.080;2022-10-31T14:52:14;17.30;99.90
27900;DHT22;15243;50.726;7.080;2022-10-31T14:54:55;17.30;99.90
27900;DHT22;15243;50.726;7.080;2022-10-31T14:57:29;17.30;99.90
27900;DHT22;15243;50.726;7.080;2022-10-31T15:00:05;17.30;99.90
27900;DHT22;15243;50.726;7.080;2022-10-31T15:02:58;17.20;99.90
27900;DHT22;15243;50.726;7.080;2022-10-31T15:05:28;17.30;99.90
27900;DHT22;15243;50.726;7.080;2022-10-31T15:07:57;17.30;99.90
27900;DHT22;15243;50.726;7.080;2022-10-31T15:10:30;17.30;99.90
27900;DHT22;15243;50.726;7.080;2022-10-31T15:13:18;17.40;99.90
27900;DHT22;15243;50.726;7.080;2022-10-31T15:15:46;17.30;99.90
27900;DHT22;15243;50.726;7.080;2022-10-31T15:18:20;17.40;99.90
27900;DHT22;15243;50.726;7.080;2022-10-31T15:20:48;17.30;99.90
27900;DHT22;15243;50.726;7.080;2022-10-31T15:23:24;17.40;99.90
27900;DHT22;15243;50.726;7.080;2022-10-31T15:26:03;17.50;99.90
27900;DHT22;15243;50.726;7.080;2022-10-31T15:28:30;17.50;99.90
27900;DHT22;15243;50.726;7.080;2022-10-31T15:31:00;17.40;99.90
27900;DHT22;15243;50.726;7.080;2022-10-31T15:33:29;17.40;99.90
27900;DHT22;15243;50.726;7.080;2022-10-31T15:36:03;17.40;99.90
27900;DHT22;15243;50.726;7.080;2022-10-31T15:38:30;17.40;99.90
27900;DHT22;15243;50.726;7.080;2022-10-31T15:41:18;17.30;99.90
27900;DHT22;15243;50.726;7.080;2022-10-31T15:43:46;17.30;99.90
27900;DHT22;15243;50.726;7.080;2022-10-31T15:46:13;17.20;99.90
27900;DHT22;15243;50.726;7.080;2022-10-31T15:48:45;17.20;99.90
27900;DHT22;15243;50.726;7.080;2022-10-31T15:51:16;17.10;99.90
27900;DHT22;15243;50.726;7.080;2022-10-31T15:54:10;17.10;99.90
27900;DHT22;15243;50.726;7.080;2022-10-31T15:56:44;17.00;99.90
27900;DHT22;15243;50.726;7.080;2022-10-31T15:59:22;17.10;99.90
27900;DHT22;15243;50.726;7.080;2022-10-31T16:02:07;17.00;99.90
27900;DHT22;15243;50.726;7.080;2022-10-31T16:05:00;16.90;99.90
27900;DHT22;15243;50.726;7.080;2022-10-31T16:07:51;16.80;99.90
27900;DHT22;15243;50.726;7.080;2022-10-31T16:10:33;16.70;99.90
27900;DHT22;15243;50.726;7.080;2022-10-31T16:13:08;16.80;99.90
27900;DHT22;15243;50.726;7.080;2022-10-31T16:15:35;16.80;99.90
27900;DHT22;15243;50.726;7.080;2022-10-31T16:18:02;16.70;99.90
27900;DHT22;15243;50.726;7.080;2022-10-31T16:20:29;16.70;99.90
27900;DHT22;15243;50.726;7.080;2022-10-31T16:22:59;16.70;99.90
27900;DHT22;15243;50.726;7.080;2022-10-31T16:25:32;16.70;99.90
27900;DHT22;15243;50.726;7.080;2022-10-31T16:28:18;16.60;99.90
27900;DHT22;15243;50.726;7.080;2022-10-31T16:30:51;16.60;99.90
27900;DHT22;15243;50.726;7.080;2022-10-31T16:33:29;16.60;99.90
27900;DHT22;15243;50.726;7.080;2022-10-31T16:39:01;16.60;99.90
27900;DHT22;15243;50.726;7.080;2022-10-31T16:41:28;16.50;99.90
27900;DHT22;15243;50.726;7.080;2022-10-31T16:43:55;16.60;99.90
27900;DHT22;15243;50.726;7.080;2022-10-31T16:46:24;16.40;99.90
27900;DHT22;15243;50.726;7.080;2022-10-31T16:48:51;16.30;99.90
27900;DHT22;15243;50.726;7.080;2022-10-31T16:51:18;16.20;99.90
27900;DHT22;15243;50.726;7.080;2022-10-31T16:53:45;16.10;99.90
27900;DHT22;15243;50.726;7.080;2022-10-31T16:56:22;16.00;99.90
27900;DHT22;15243;50.726;7.080;2022-10-31T16:58:50;16.00;99.90
27900;DHT22;15243;50.726;7.080;2022-10-31T17:01:17;16.00;99.90
27900;DHT22;15243;50.726;7.080;2022-10-31T17:03:44;16.00;99.90
27900;DHT22;15243;50.726;7.080;2022-10-31T17:06:14;16.00;99.90
27900;DHT22;15243;50.726;7.080;2022-10-31T17:08:41;16.00;99.90
27900;DHT22;15243;50.726;7.080;2022-10-31T17:11:15;16.00;99.90
27900;DHT22;15243;50.726;7.080;2022-10-31T17:13:42;16.10;99.90
27900;DHT22;15243;50.726;7.080;2022-10-31T17:16:12;16.10;99.90
27900;DHT22;15243;50.726;7.080;2022-10-31T17:18:39;16.10;99.90
27900;DHT22;15243;50.726;7.080;2022-10-31T17:21:09;16.00;99.90
27900;DHT22;15243;50.726;7.080;2022-10-31T17:23:38;15.90;99.90
27900;DHT22;15243;50.726;7.080;2022-10-31T17:26:05;15.90;99.90
27900;DHT22;15243;50.726;7.080;2022-10-31T17:28:34;15.80;99.90
27900;DHT22;15243;50.726;7.080;2022-10-31T17:31:01;15.70;99.90
27900;DHT22;15243;50.726;7.080;2022-10-31T17:33:28;15.60;99.90
27900;DHT22;15243;50.726;7.080;2022-10-31T17:35:55;15.60;99.90
27900;DHT22;15243;50.726;7.080;2022-10-31T17:38:22;15.50;99.90
27900;DHT22;15243;50.726;7.080;2022-10-31T17:40:49;15.50;99.90
27900;DHT22;15243;50.726;7.080;2022-10-31T17:43:16;15.50;99.90
27900;DHT22;15243;50.726;7.080;2022-10-31T17:45:42;15.40;99.90
27900;DHT22;15243;50.726;7.080;2022-10-31T17:48:12;15.40;99.90
27900;DHT22;15243;50.726;7.080;2022-10-31T17:50:39;15.30;99.90
27900;DHT22;15243;50.726;7.080;2022-10-31T17:53:06;15.30;99.90
27900;DHT22;15243;50.726;7.080;2022-10-31T17:55:33;15.20;99.90
27900;DHT22;15243;50.726;7.080;2022-10-31T17:58:04;15.10;99.90
27900;DHT22;15243;50.726;7.080;2022-10-31T18:00:31;15.10;99.90
27900;DHT22;15243;50.726;7.080;2022-10-31T18:02:59;15.00;99.90
27900;DHT22;15243;50.726;7.080;2022-10-31T18:05:27;15.10;99.90
27900;DHT22;15243;50.726;7.080;2022-10-31T18:07:54;15.00;99.90
27900;DHT22;15243;50.726;7.080;2022-10-31T18:10:25;14.90;99.90
27900;DHT22;15243;50.726;7.080;2022-10-31T18:12:52;14.80;99.90
27900;DHT22;15243;50.726;7.080;2022-10-31T18:15:19;14.70;99.90
27900;DHT22;15243;50.726;7.080;2022-10-31T18:17:46;14.70;99.90
27900;DHT22;15243;50.726;7.080;2022-10-31T18:20:13;14.70;99.90
27900;DHT22;15243;50.726;7.080;2022-10-31T18:22:40;14.70;99.90
27900;DHT22;15243;50.726;7.080;2022-10-31T18:25:07;14.60;99.90
27900;DHT22;15243;50.726;7.080;2022-10-31T18:27:34;14.60;99.90